Navarre, FL

7:08 PM CST on January 25, 2015 (GMT -0600)
Hidden Creek | Change Station
CLOSE
Current Station
Personal Weather Station
Location: Navarre, FL
Elevation: 34 ft
Nearby Weather Stations
Active Advisory: Coastal Hazard Statement

Elev 34 ft 30.43 °N, 86.93 °W | Updated 11 seconds ago

Clear
Clear
59.4 °F
Feels Like 59.4 °F
N
3.0
Wind Variable Wind from WNW
Gusts 8.0 mph

Today
High -- | Low -- °F
--% Chance of Precip.
Yesterday
High -- | Low -- °F
Precip. -- in
6:42 AM 5:17 PM
Waxing Crescent, 37% visible
Pressure 29.86 in
Visibility 10.0 miles
Clouds Few 3100 ft
Dew Point 53 °F
Humidity 80%
Rainfall 0.00 in
Snow Depth Not available.
UV 0 out of 12
Pollen 6.10 out of 12
Air Quality Not available.
Flu Activity Not available.
METAR KHRT 260058Z AUTO 23011G20KT 10SM FEW031 16/09 A2985 RMK AO2 PK WND 25027/2358 SLP110 T01580093 RVRNO $

More Conditions Fewer Conditions

Pressure 29.86 in
Visibility 10.0 miles
Clouds Few 3100 ft
Dew Point 53 °F
Humidity 80%
Rainfall 0.00 in
Snow Depth Not available.
UV 0 out of 12
Pollen 6.10 out of 12
Air Quality Not available.
Flu Activity Not available.
METAR KHRT 260058Z AUTO 23011G20KT 10SM FEW031 16/09 A2985 RMK AO2 PK WND 25027/2358 SLP110 T01580093 RVRNO $

More Conditions Fewer Conditions

10-Day Weather Forecast

Almanac

Astronomy

Jan. 25, 2015 Rise Set
Actual Time
Civil Twilight
Nautical Twilight
Astronomical Twilight
Moon
Length of Visible Light
Length of Day
Tomorrow will be .
, % of the Moon is Illuminated

Today's Extremes

State Highs State Lows

Community

WunderPhotos

Upload Photos

1,790,031 photos uploaded!

WunderBlogs® & News

Nearby

Air Quality

  Air Quality AQ Index Pollutant
Not available.

Snow Depth

Station Depth Elevation

Earthquake Activity

City Distance Mag. Time & Date
Minimum magnitude displayed is 2.5.

Coastal Water Temperatures

Place Temperature

Nearby Weather Stations